createdAt,value
2022-08-26T00:01:42.264Z,57.30
2022-08-26T00:04:11.972Z,57.00
2022-08-26T00:06:38.873Z,57.09
2022-08-26T00:09:09.804Z,56.77
2022-08-26T00:11:36.963Z,57.09
2022-08-26T00:14:03.706Z,57.38
2022-08-26T00:16:31.818Z,57.86
2022-08-26T00:18:58.897Z,57.59
2022-08-26T00:21:25.423Z,57.95
2022-08-26T00:23:52.069Z,57.86
2022-08-26T00:26:18.669Z,57.67
2022-08-26T00:28:47.433Z,57.63
2022-08-26T00:31:14.366Z,57.85
2022-08-26T00:33:41.047Z,58.34
2022-08-26T00:36:08.463Z,58.31
2022-08-26T00:38:46.896Z,58.48
2022-08-26T00:41:13.895Z,58.21
2022-08-26T00:43:47.737Z,58.22
2022-08-26T00:46:19.393Z,58.57
2022-08-26T00:48:48.123Z,58.70
2022-08-26T00:51:21.303Z,58.28
2022-08-26T00:53:55.378Z,58.19
2022-08-26T00:56:41.530Z,58.69
2022-08-26T00:59:11.901Z,58.40
2022-08-26T01:01:41.361Z,58.71
2022-08-26T01:04:09.753Z,58.24
2022-08-26T01:07:23.104Z,58.68
2022-08-26T01:09:49.853Z,58.51
2022-08-26T01:12:17.114Z,58.71
2022-08-26T01:14:49.772Z,58.64
2022-08-26T01:17:16.880Z,58.59
2022-08-26T01:19:48.831Z,58.20
2022-08-26T01:22:23.174Z,58.68
2022-08-26T01:24:55.067Z,58.60
2022-08-26T01:27:23.398Z,58.71
2022-08-26T01:29:51.585Z,58.88
2022-08-26T01:32:23.305Z,58.76
2022-08-26T01:34:50.469Z,58.40
2022-08-26T01:37:25.909Z,58.84
2022-08-26T01:39:55.253Z,58.67
2022-08-26T01:42:24.663Z,59.21
2022-08-26T01:44:56.108Z,59.27
2022-08-26T01:47:25.924Z,59.26
2022-08-26T01:49:55.915Z,59.77
2022-08-26T01:52:28.181Z,59.05
2022-08-26T01:54:57.308Z,59.64
2022-08-26T01:57:25.272Z,59.96
2022-08-26T01:59:54.622Z,59.43
2022-08-26T02:02:21.702Z,59.53
2022-08-26T02:04:58.267Z,59.73
2022-08-26T02:07:26.619Z,59.36
2022-08-26T02:09:53.864Z,59.63
2022-08-26T02:12:20.626Z,59.75
2022-08-26T02:14:52.121Z,60.61
2022-08-26T02:17:21.255Z,60.30
2022-08-26T02:19:49.354Z,60.50
2022-08-26T02:22:19.702Z,60.33
2022-08-26T02:25:01.367Z,60.72
2022-08-26T02:27:32.902Z,59.81
2022-08-26T02:30:28.197Z,60.16
2022-08-26T02:32:55.088Z,60.15
2022-08-26T02:35:23.793Z,59.94
2022-08-26T02:37:52.407Z,60.78
2022-08-26T02:40:25.045Z,61.34
2022-08-26T02:42:53.143Z,61.26
2022-08-26T02:45:23.225Z,61.59
2022-08-26T02:47:51.234Z,61.16
2022-08-26T02:50:18.081Z,61.43
2022-08-26T02:52:44.573Z,61.66
2022-08-26T02:55:11.203Z,61.63
2022-08-26T02:57:37.827Z,61.81
2022-08-26T03:00:07.927Z,61.96
2022-08-26T03:02:34.809Z,61.94
2022-08-26T03:05:02.198Z,61.98
2022-08-26T03:07:29.980Z,61.97
2022-08-26T03:09:57.675Z,62.36
2022-08-26T03:12:24.237Z,61.48
2022-08-26T03:14:52.891Z,61.50
2022-08-26T03:17:19.475Z,61.57
2022-08-26T03:19:45.952Z,61.36
2022-08-26T03:22:12.434Z,61.72
2022-08-26T03:24:41.274Z,61.92
2022-08-26T03:27:12.857Z,61.94
2022-08-26T03:29:59.655Z,61.54
2022-08-26T03:32:26.989Z,62.36
2022-08-26T03:34:54.345Z,62.30
2022-08-26T03:37:21.610Z,62.38
2022-08-26T03:39:48.489Z,61.96
2022-08-26T03:42:15.139Z,62.14
2022-08-26T03:44:41.980Z,62.24
2022-08-26T03:47:09.020Z,62.17
2022-08-26T03:49:35.910Z,62.48
2022-08-26T03:52:03.608Z,62.73
2022-08-26T03:54:30.306Z,62.94
2022-08-26T03:56:56.799Z,63.10
2022-08-26T03:59:23.519Z,62.50
2022-08-26T04:01:51.130Z,62.77
2022-08-26T04:04:18.181Z,63.03
2022-08-26T04:06:50.175Z,63.25
2022-08-26T04:09:20.777Z,63.31
2022-08-26T04:11:50.738Z,62.60
2022-08-26T04:14:20.421Z,62.25
2022-08-26T04:16:47.576Z,62.14
2022-08-26T04:19:15.720Z,62.97
2022-08-26T04:21:42.599Z,63.23
2022-08-26T04:24:12.243Z,63.29
2022-08-26T04:26:42.867Z,62.75
2022-08-26T04:29:18.016Z,63.09
2022-08-26T04:31:46.898Z,63.46
2022-08-26T04:34:15.120Z,63.72
2022-08-26T04:36:43.080Z,63.54
2022-08-26T04:39:12.239Z,63.21
2022-08-26T04:41:39.585Z,63.83
2022-08-26T04:44:07.164Z,63.21
2022-08-26T04:46:33.913Z,63.10
2022-08-26T04:49:00.466Z,63.84
2022-08-26T04:51:30.039Z,63.97
2022-08-26T04:53:57.966Z,63.47
2022-08-26T04:56:26.618Z,63.04
2022-08-26T04:58:53.532Z,63.81
2022-08-26T05:01:21.362Z,63.50
2022-08-26T05:03:50.836Z,63.74
2022-08-26T05:06:19.386Z,63.48
2022-08-26T05:08:46.714Z,63.22
2022-08-26T05:11:13.523Z,63.71
2022-08-26T05:13:40.365Z,64.01
2022-08-26T05:16:11.563Z,63.80
2022-08-26T05:18:39.517Z,63.49
2022-08-26T05:21:07.435Z,63.15
2022-08-26T05:23:35.957Z,63.47
2022-08-26T05:26:02.501Z,63.40
2022-08-26T05:28:31.678Z,63.04
2022-08-26T05:30:58.675Z,63.26
2022-08-26T05:33:25.234Z,63.17
2022-08-26T05:35:51.865Z,63.56
2022-08-26T05:38:20.750Z,62.85
2022-08-26T05:40:52.909Z,62.84
2022-08-26T05:43:21.268Z,62.20
2022-08-26T05:45:49.986Z,62.49
2022-08-26T05:48:18.946Z,62.00
2022-08-26T05:50:52.237Z,61.39
2022-08-26T05:53:21.720Z,61.80
2022-08-26T05:55:52.258Z,61.41
2022-08-26T05:58:21.665Z,61.34
2022-08-26T06:01:00.674Z,61.30
2022-08-26T06:03:28.290Z,61.47
2022-08-26T06:05:55.258Z,62.19
2022-08-26T06:08:21.799Z,61.09
2022-08-26T06:10:49.060Z,61.58
2022-08-26T06:13:19.460Z,61.60
2022-08-26T06:15:48.760Z,60.74
2022-08-26T06:18:18.517Z,61.00
2022-08-26T06:20:57.427Z,60.43
2022-08-26T06:23:45.066Z,61.20
2022-08-26T06:26:12.493Z,60.44
2022-08-26T06:28:39.126Z,60.84
2022-08-26T06:31:06.222Z,61.14
2022-08-26T06:33:33.506Z,60.36
2022-08-26T06:36:01.118Z,59.71
2022-08-26T06:38:28.428Z,59.54
2022-08-26T06:40:55.401Z,59.28
2022-08-26T06:43:25.750Z,59.20
2022-08-26T06:45:59.696Z,58.54
2022-08-26T06:48:26.262Z,57.45
2022-08-26T06:51:04.238Z,57.30
2022-08-26T06:53:30.821Z,57.40
2022-08-26T06:55:57.355Z,57.16
2022-08-26T06:58:23.978Z,56.26
2022-08-26T07:00:51.256Z,55.27
2022-08-26T07:03:18.350Z,54.50
2022-08-26T07:05:44.893Z,54.69
2022-08-26T07:08:11.984Z,54.36
2022-08-26T07:10:38.759Z,54.36
2022-08-26T07:13:06.020Z,53.82
2022-08-26T07:15:36.170Z,53.83
2022-08-26T07:18:03.017Z,53.21
2022-08-26T07:20:29.571Z,52.09
2022-08-26T07:22:56.127Z,51.55
2022-08-26T07:25:22.640Z,51.07
2022-08-26T07:27:54.299Z,50.96
2022-08-26T07:30:21.475Z,49.66
2022-08-26T07:32:48.230Z,48.68
2022-08-26T07:35:15.037Z,48.38
2022-08-26T07:37:42.680Z,48.16
2022-08-26T07:40:09.605Z,47.06
2022-08-26T07:42:36.234Z,46.60
2022-08-26T07:45:02.868Z,45.84
2022-08-26T07:47:29.481Z,45.83
2022-08-26T07:49:57.557Z,44.93
2022-08-26T07:52:27.437Z,45.79
2022-08-26T07:54:56.369Z,45.23
2022-08-26T07:57:24.211Z,44.40
2022-08-26T07:59:51.057Z,43.43
2022-08-26T08:02:17.645Z,42.71
2022-08-26T08:04:44.296Z,43.38
2022-08-26T08:07:11.587Z,43.19
2022-08-26T08:09:38.612Z,43.27
2022-08-26T08:12:07.415Z,43.48
2022-08-26T08:14:36.428Z,43.80
2022-08-26T08:17:04.465Z,43.47
2022-08-26T08:19:36.698Z,43.50
2022-08-26T08:22:17.500Z,44.72
2022-08-26T08:24:44.835Z,44.61
2022-08-26T08:27:11.314Z,44.58
2022-08-26T08:29:38.683Z,43.58
2022-08-26T08:32:05.581Z,43.61
2022-08-26T08:34:37.939Z,44.00
2022-08-26T08:37:08.677Z,42.82
2022-08-26T08:39:37.246Z,40.62
2022-08-26T08:42:07.718Z,40.39
2022-08-26T08:44:39.853Z,40.54
2022-08-26T08:47:25.030Z,40.04
2022-08-26T08:49:54.585Z,41.33
2022-08-26T08:52:35.205Z,42.99
2022-08-26T08:55:11.044Z,43.70
2022-08-26T08:57:55.701Z,43.43
2022-08-26T09:00:39.858Z,43.07
2022-08-26T09:03:32.239Z,45.08
2022-08-26T09:06:01.599Z,45.76
2022-08-26T09:08:35.739Z,44.15
2022-08-26T09:11:04.371Z,42.53
2022-08-26T09:13:31.761Z,42.22
2022-08-26T09:16:07.286Z,42.07
2022-08-26T09:18:55.370Z,41.79
2022-08-26T09:21:25.274Z,42.60
2022-08-26T09:23:55.643Z,44.02
2022-08-26T09:26:38.468Z,44.22
2022-08-26T09:29:13.853Z,43.26
2022-08-26T09:31:41.424Z,42.06
2022-08-26T09:34:22.142Z,42.21
2022-08-26T09:36:59.587Z,44.80
2022-08-26T09:39:26.065Z,43.39
2022-08-26T09:42:25.580Z,42.57
2022-08-26T09:45:00.121Z,41.73
2022-08-26T09:47:46.749Z,40.82
2022-08-26T09:50:29.355Z,38.88
2022-08-26T09:53:20.991Z,37.54
2022-08-26T09:56:17.675Z,35.95
2022-08-26T09:58:47.264Z,36.10
2022-08-26T10:01:40.163Z,35.73
2022-08-26T10:04:27.112Z,36.21
2022-08-26T10:07:03.307Z,36.82
2022-08-26T10:09:40.522Z,35.58
2022-08-26T10:12:21.756Z,34.52
2022-08-26T10:14:54.400Z,33.85
2022-08-26T10:17:39.067Z,34.38
2022-08-26T10:20:23.308Z,36.56
2022-08-26T10:22:58.676Z,36.51
2022-08-26T10:25:33.182Z,35.77
2022-08-26T10:28:06.778Z,35.89
2022-08-26T10:30:58.261Z,36.20
2022-08-26T10:33:25.450Z,37.32
2022-08-26T10:36:05.264Z,37.43
2022-08-26T10:38:40.385Z,38.61
2022-08-26T10:41:16.810Z,38.95
2022-08-26T10:43:54.077Z,38.95
2022-08-26T10:46:27.115Z,40.25
2022-08-26T10:49:06.594Z,39.29
2022-08-26T10:51:42.023Z,40.07
2022-08-26T10:54:16.451Z,41.10
2022-08-26T10:57:30.522Z,40.46
2022-08-26T11:00:23.828Z,39.89
2022-08-26T11:03:03.205Z,40.84
2022-08-26T11:05:29.980Z,41.75
2022-08-26T11:08:21.592Z,43.00
2022-08-26T11:10:59.464Z,42.57
2022-08-26T11:13:57.207Z,42.90
2022-08-26T11:16:44.393Z,43.27
2022-08-26T11:19:59.560Z,43.83
2022-08-26T11:22:36.249Z,42.69
2022-08-26T11:25:07.710Z,42.28
2022-08-26T11:27:38.423Z,42.55
2022-08-26T11:30:15.755Z,43.22
2022-08-26T11:32:50.614Z,42.75
2022-08-26T11:35:17.186Z,42.61
2022-08-26T11:37:51.266Z,42.73
2022-08-26T11:40:22.212Z,43.83
2022-08-26T11:42:59.584Z,43.23
2022-08-26T11:46:00.822Z,43.01
2022-08-26T11:48:28.887Z,41.35
2022-08-26T11:51:02.444Z,40.19
2022-08-26T11:53:32.541Z,40.59
2022-08-26T11:56:04.265Z,41.06
2022-08-26T11:58:31.936Z,41.25
2022-08-26T12:01:01.896Z,41.90
2022-08-26T12:03:38.818Z,42.04
2022-08-26T12:06:22.892Z,43.54
2022-08-26T12:08:50.300Z,43.56
2022-08-26T12:11:25.966Z,43.52
2022-08-26T12:14:25.998Z,44.14
2022-08-26T12:16:54.526Z,43.98
2022-08-26T12:19:33.463Z,44.27
2022-08-26T12:22:22.196Z,43.88
2022-08-26T12:24:53.595Z,44.49
2022-08-26T12:27:34.438Z,44.76
2022-08-26T12:30:13.877Z,45.38
2022-08-26T12:32:55.127Z,45.47
2022-08-26T12:35:25.697Z,45.55
2022-08-26T12:37:53.924Z,47.16
2022-08-26T12:40:44.007Z,47.72
2022-08-26T12:43:14.492Z,47.27
2022-08-26T12:45:59.872Z,48.77
2022-08-26T12:48:30.463Z,48.01
2022-08-26T12:50:58.059Z,50.15
2022-08-26T12:53:27.840Z,51.32
2022-08-26T12:56:01.489Z,51.76
2022-08-26T12:58:34.040Z,51.85
2022-08-26T13:01:00.626Z,52.75
2022-08-26T13:03:45.456Z,52.66
2022-08-26T13:06:22.176Z,53.25
2022-08-26T13:08:51.693Z,53.77
2022-08-26T13:11:44.932Z,53.51
2022-08-26T13:14:24.162Z,53.46
2022-08-26T13:16:51.986Z,54.03
2022-08-26T13:19:21.889Z,55.04
2022-08-26T13:21:54.719Z,56.46
2022-08-26T13:24:26.162Z,57.65
2022-08-26T13:26:52.549Z,59.06
2022-08-26T13:29:19.458Z,59.82
2022-08-26T13:31:46.763Z,61.56
2022-08-26T13:34:18.005Z,62.55
2022-08-26T13:36:45.141Z,63.72
2022-08-26T13:39:12.055Z,63.95
2022-08-26T13:41:38.807Z,63.88
2022-08-26T13:44:05.982Z,64.93
2022-08-26T13:46:32.764Z,64.85
2022-08-26T13:48:59.499Z,65.70
2022-08-26T13:51:27.471Z,65.46
2022-08-26T13:53:54.420Z,65.47
2022-08-26T13:56:21.603Z,66.62
2022-08-26T13:58:48.221Z,66.02
2022-08-26T14:01:17.414Z,65.03
2022-08-26T14:03:44.030Z,66.09
2022-08-26T14:06:10.848Z,65.01
2022-08-26T14:08:38.972Z,64.69
2022-08-26T14:11:06.278Z,65.92
2022-08-26T14:13:32.816Z,66.92
2022-08-26T14:16:01.440Z,67.97
2022-08-26T14:18:33.338Z,68.17
2022-08-26T14:21:00.261Z,66.65
2022-08-26T14:23:27.633Z,62.94
2022-08-26T14:25:54.171Z,62.64
2022-08-26T14:28:20.738Z,64.94
2022-08-26T14:30:57.129Z,64.57
2022-08-26T14:33:27.239Z,65.00
2022-08-26T14:36:13.671Z,65.85
2022-08-26T14:38:40.144Z,67.38
2022-08-26T14:41:06.606Z,66.82
2022-08-26T14:43:33.550Z,67.80
2022-08-26T14:46:01.027Z,68.44
2022-08-26T14:48:27.512Z,71.44
2022-08-26T14:50:53.984Z,72.01
2022-08-26T14:53:38.767Z,80.00
2022-08-26T14:56:05.502Z,84.83
2022-08-26T14:58:34.918Z,89.42
2022-08-26T15:01:04.187Z,86.04
2022-08-26T15:03:30.943Z,84.79
2022-08-26T15:05:57.873Z,84.40
2022-08-26T15:08:24.459Z,82.97
2022-08-26T15:10:51.036Z,93.95
2022-08-26T15:13:17.506Z,82.06
2022-08-26T15:15:44.176Z,81.12
2022-08-26T15:18:10.846Z,78.93
2022-08-26T15:20:37.369Z,75.63
2022-08-26T15:23:06.463Z,75.63
2022-08-26T15:25:33.029Z,74.73
2022-08-26T15:27:59.521Z,73.49
2022-08-26T15:30:25.988Z,73.42
2022-08-26T15:32:52.571Z,73.81
2022-08-26T15:35:19.202Z,72.77
2022-08-26T15:37:45.715Z,73.55
2022-08-26T15:40:12.367Z,72.64
2022-08-26T15:42:39.368Z,72.81
2022-08-26T15:45:06.296Z,73.46
2022-08-26T15:47:32.837Z,73.83
2022-08-26T15:50:15.093Z,74.65
2022-08-26T15:52:41.933Z,74.78
2022-08-26T15:55:09.253Z,74.17
2022-08-26T15:57:35.822Z,74.47
2022-08-26T16:00:02.764Z,74.90
2022-08-26T16:02:32.201Z,74.08
2022-08-26T16:05:00.170Z,74.65
2022-08-26T16:07:26.649Z,73.50
2022-08-26T16:09:54.607Z,73.56
2022-08-26T16:12:21.730Z,74.43
2022-08-26T16:14:51.342Z,75.47
2022-08-26T16:17:19.453Z,75.10
2022-08-26T16:19:46.121Z,74.92
2022-08-26T16:22:12.719Z,75.22
2022-08-26T16:24:39.533Z,75.73
2022-08-26T16:27:05.993Z,75.67
2022-08-26T16:29:32.638Z,74.88
2022-08-26T16:31:59.106Z,74.01
2022-08-26T16:34:25.620Z,74.14
2022-08-26T16:36:52.152Z,73.77
2022-08-26T16:39:18.708Z,74.39
2022-08-26T16:41:45.271Z,74.10
2022-08-26T16:44:12.261Z,73.16
2022-08-26T16:46:39.696Z,73.93
2022-08-26T16:49:06.481Z,73.92
2022-08-26T16:51:37.831Z,73.80
2022-08-26T16:54:07.097Z,73.75
2022-08-26T16:56:34.540Z,73.94
2022-08-26T16:59:04.065Z,73.77
2022-08-26T17:01:30.541Z,73.14
2022-08-26T17:03:57.207Z,73.61
2022-08-26T17:06:23.845Z,74.52
2022-08-26T17:08:50.384Z,73.99
2022-08-26T17:11:17.033Z,73.80
2022-08-26T17:13:43.671Z,73.21
2022-08-26T17:16:14.481Z,72.52
2022-08-26T17:18:41.242Z,73.83
2022-08-26T17:21:10.332Z,74.86
2022-08-26T17:23:37.796Z,74.99
2022-08-26T17:26:04.873Z,73.71
2022-08-26T17:28:32.285Z,73.97
2022-08-26T17:30:59.526Z,75.12
2022-08-26T17:33:26.561Z,74.48
2022-08-26T17:35:53.769Z,75.07
2022-08-26T17:38:23.711Z,75.41
2022-08-26T17:40:50.298Z,74.56
2022-08-26T17:43:17.872Z,75.03
2022-08-26T17:45:44.407Z,75.37
2022-08-26T17:48:11.224Z,75.32
2022-08-26T17:50:41.399Z,74.71
2022-08-26T17:53:08.362Z,76.17
2022-08-26T17:55:41.606Z,76.10
2022-08-26T17:58:11.717Z,75.84
2022-08-26T18:00:50.921Z,76.24
2022-08-26T18:03:19.070Z,75.67
2022-08-26T18:05:50.757Z,75.85
2022-08-26T18:08:17.368Z,75.81
2022-08-26T18:10:44.701Z,75.92
2022-08-26T18:13:11.674Z,75.94
2022-08-26T18:15:39.732Z,75.98
2022-08-26T18:18:06.341Z,75.10
2022-08-26T18:20:32.854Z,75.26
2022-08-26T18:22:59.354Z,75.60
2022-08-26T18:25:26.026Z,76.18
2022-08-26T18:27:52.478Z,75.71
2022-08-26T18:30:21.179Z,75.78
2022-08-26T18:32:49.214Z,75.90
2022-08-26T18:35:16.431Z,75.59
2022-08-26T18:37:44.353Z,75.19
2022-08-26T18:40:13.444Z,75.43
2022-08-26T18:42:41.305Z,76.10
2022-08-26T18:45:08.726Z,75.74
2022-08-26T18:47:36.068Z,76.41
2022-08-26T18:50:04.502Z,75.89
2022-08-26T18:52:31.897Z,75.43
2022-08-26T18:54:59.452Z,75.94
2022-08-26T18:57:25.948Z,75.40
2022-08-26T18:59:52.419Z,75.53
2022-08-26T19:02:19.078Z,75.58
2022-08-26T19:04:45.629Z,75.97
2022-08-26T19:07:12.090Z,76.15
2022-08-26T19:09:38.582Z,75.68
2022-08-26T19:12:05.505Z,75.51
2022-08-26T19:14:32.490Z,75.23
2022-08-26T19:16:59.278Z,75.83
2022-08-26T19:19:25.873Z,75.90
2022-08-26T19:21:53.070Z,75.57
2022-08-26T19:24:20.980Z,76.42
2022-08-26T19:26:51.357Z,76.25
2022-08-26T19:29:31.907Z,76.04
2022-08-26T19:31:59.196Z,75.69
2022-08-26T19:34:26.254Z,75.59
2022-08-26T19:36:54.063Z,75.92
2022-08-26T19:39:21.285Z,75.38
2022-08-26T19:41:47.895Z,75.77
2022-08-26T19:44:39.425Z,75.18
2022-08-26T19:47:08.384Z,75.85
2022-08-26T19:49:35.425Z,75.97
2022-08-26T19:52:03.024Z,76.06
2022-08-26T19:54:29.943Z,76.13
2022-08-26T19:56:56.808Z,75.44
2022-08-26T19:59:23.347Z,75.75
2022-08-26T20:02:00.427Z,75.79
2022-08-26T20:04:27.868Z,74.61
2022-08-26T20:06:57.689Z,74.58
2022-08-26T20:09:25.331Z,74.98
2022-08-26T20:12:13.226Z,74.98
2022-08-26T20:14:39.756Z,75.53
2022-08-26T20:17:06.992Z,75.48
2022-08-26T20:19:53.097Z,75.12
2022-08-26T20:22:20.604Z,75.54
2022-08-26T20:24:48.437Z,75.49
2022-08-26T20:27:15.494Z,75.20
2022-08-26T20:29:43.022Z,75.27
2022-08-26T20:32:10.031Z,75.39
2022-08-26T20:34:38.087Z,75.25
2022-08-26T20:37:05.134Z,75.74
2022-08-26T20:39:31.611Z,75.75
2022-08-26T20:41:58.536Z,75.83
2022-08-26T20:44:25.817Z,75.54
2022-08-26T20:46:52.346Z,75.84
2022-08-26T20:49:19.064Z,75.61
2022-08-26T20:51:48.266Z,75.68
2022-08-26T20:54:15.459Z,75.48
2022-08-26T20:56:42.052Z,75.56
2022-08-26T20:59:09.346Z,75.49
2022-08-26T21:01:42.093Z,75.39
2022-08-26T21:04:12.654Z,75.56
2022-08-26T21:06:39.496Z,75.43
2022-08-26T21:09:10.799Z,75.63
2022-08-26T21:11:38.780Z,75.54
2022-08-26T21:14:06.922Z,75.57
2022-08-26T21:16:43.436Z,75.34
2022-08-26T21:19:13.049Z,75.25
2022-08-26T21:21:40.787Z,75.16
2022-08-26T21:24:08.145Z,74.42
2022-08-26T21:26:34.833Z,75.43
2022-08-26T21:29:01.639Z,75.18
2022-08-26T21:31:29.595Z,74.58
2022-08-26T21:33:56.525Z,74.97
2022-08-26T21:36:23.019Z,74.98
2022-08-26T21:38:49.586Z,74.84
2022-08-26T21:41:21.889Z,74.93
2022-08-26T21:43:50.131Z,74.62
2022-08-26T21:46:20.154Z,74.42
2022-08-26T21:48:50.979Z,74.62
2022-08-26T21:51:20.487Z,73.76
2022-08-26T21:53:47.184Z,73.71
2022-08-26T21:56:16.036Z,73.50
2022-08-26T21:58:42.730Z,72.99
2022-08-26T22:01:12.125Z,73.74
2022-08-26T22:03:46.797Z,73.86
2022-08-26T22:06:14.044Z,73.95
2022-08-26T22:08:40.516Z,73.58
2022-08-26T22:11:07.050Z,73.68
2022-08-26T22:13:37.848Z,74.59
2022-08-26T22:16:05.705Z,74.27
2022-08-26T22:18:32.843Z,74.73
2022-08-26T22:21:02.719Z,74.33
2022-08-26T22:23:30.242Z,74.40
2022-08-26T22:25:58.247Z,74.24
2022-08-26T22:28:25.115Z,74.29
2022-08-26T22:30:52.477Z,74.33
2022-08-26T22:33:19.325Z,73.99
2022-08-26T22:35:48.478Z,74.26
2022-08-26T22:38:15.593Z,74.18
2022-08-26T22:40:48.410Z,73.83
2022-08-26T22:43:15.278Z,73.88
2022-08-26T22:45:46.795Z,73.95
2022-08-26T22:48:15.519Z,73.95
2022-08-26T22:50:43.340Z,73.90
2022-08-26T22:53:10.070Z,73.61
2022-08-26T22:55:36.796Z,73.93
2022-08-26T22:58:03.627Z,73.46
2022-08-26T23:00:32.426Z,73.59
2022-08-26T23:02:59.950Z,73.55
2022-08-26T23:05:26.510Z,73.45
2022-08-26T23:07:53.913Z,73.17
2022-08-26T23:10:20.727Z,73.42
2022-08-26T23:12:47.213Z,73.48
2022-08-26T23:15:13.818Z,72.39
2022-08-26T23:17:40.852Z,71.66
2022-08-26T23:20:11.613Z,71.36
2022-08-26T23:22:39.714Z,72.48
2022-08-26T23:25:08.351Z,72.86
2022-08-26T23:27:38.921Z,73.18
2022-08-26T23:30:07.867Z,73.49
2022-08-26T23:32:34.389Z,73.86
2022-08-26T23:35:00.919Z,74.11
2022-08-26T23:37:37.086Z,73.08
2022-08-26T23:40:10.876Z,73.23
2022-08-26T23:42:38.274Z,73.93
2022-08-26T23:45:09.985Z,73.83
2022-08-26T23:47:36.628Z,74.27
2022-08-26T23:50:04.195Z,74.83
2022-08-26T23:52:49.365Z,74.00
2022-08-26T23:55:15.840Z,74.07
2022-08-26T23:57:42.640Z,74.41
